Time;durP1;ratioP1;P1;durP2;ratioP2;P2;SDS_P1;SDS_P2;PMS_P1;PMS_P2;Temp;Humidity;BMP_temperature;BMP_pressure;BME280_temperature;BME280_humidity;BME280_pressure;Samples;Min_cycle;Max_cycle;Signal;HPM_P1;HPM_P2
2021/08/10 00:01:48;;;;;;;4.97;4.67;;;18.30;99.90;;;;;;5052722;28;20177;-69
2021/08/10 00:04:13;;;;;;;5.87;5.37;;;18.30;99.90;;;;;;5051468;28;20657;-69
2021/08/10 00:06:39;;;;;;;5.03;4.70;;;18.30;99.90;;;;;;5048448;28;20414;-69
2021/08/10 00:09:05;;;;;;;4.70;4.40;;;18.40;99.90;;;;;;5052488;28;20540;-73
2021/08/10 00:11:30;;;;;;;5.37;4.87;;;18.40;99.90;;;;;;5051844;28;20181;-69
2021/08/10 00:13:56;;;;;;;5.50;5.10;;;18.40;99.90;;;;;;5052483;28;20185;-70
2021/08/10 00:16:22;;;;;;;5.20;4.90;;;18.40;99.90;;;;;;5051614;28;20177;-69
2021/08/10 00:18:48;;;;;;;5.00;4.73;;;18.40;99.90;;;;;;5031691;28;20217;-69
2021/08/10 00:21:13;;;;;;;4.83;4.43;;;18.40;99.90;;;;;;5051492;28;20665;-69
2021/08/10 00:23:39;;;;;;;4.93;4.63;;;18.40;99.90;;;;;;5052556;28;20182;-68
2021/08/10 00:26:05;;;;;;;5.00;4.57;;;18.40;99.90;;;;;;5052120;28;20197;-73
2021/08/10 00:28:30;;;;;;;5.07;4.77;;;18.50;99.90;;;;;;5051662;28;20178;-68
2021/08/10 00:30:56;;;;;;;5.00;4.60;;;18.40;99.90;;;;;;5032148;28;20239;-69
2021/08/10 00:33:22;;;;;;;4.80;4.50;;;18.40;99.90;;;;;;5046197;28;20173;-69
2021/08/10 00:35:47;;;;;;;4.70;4.30;;;18.40;99.90;;;;;;5051967;28;20177;-69
2021/08/10 00:38:13;;;;;;;4.70;4.40;;;18.40;99.90;;;;;;5050339;28;20684;-70
2021/08/10 00:40:40;;;;;;;4.13;3.80;;;18.40;99.90;;;;;;5051669;28;20197;-69
2021/08/10 00:43:35;;;;;;;4.40;4.00;;;18.40;99.90;;;;;;5049969;28;20185;-75
2021/08/10 00:46:04;;;;;;;4.90;4.50;;;18.30;99.90;;;;;;5051658;28;20486;-69
2021/08/10 00:48:29;;;;;;;4.30;4.00;;;18.30;99.90;;;;;;5050902;28;20570;-69
2021/08/10 00:50:56;;;;;;;4.47;3.70;;;18.30;99.90;;;;;;5051743;28;20511;-69
2021/08/10 00:53:22;;;;;;;3.77;3.47;;;18.30;99.90;;;;;;5044781;28;20192;-69
2021/08/10 00:55:49;;;;;;;4.70;4.30;;;18.30;99.90;;;;;;5049786;28;20756;-69
2021/08/10 00:58:15;;;;;;;3.93;3.73;;;18.30;99.90;;;;;;5050672;28;20502;-69
2021/08/10 01:00:41;;;;;;;4.07;3.87;;;18.30;99.90;;;;;;5051470;28;20910;-69
2021/08/10 01:03:06;;;;;;;3.53;3.33;;;18.30;99.90;;;;;;5034038;28;20303;-74
2021/08/10 01:05:34;;;;;;;4.00;3.80;;;18.30;99.90;;;;;;5047370;28;20433;-69
2021/08/10 01:08:11;;;;;;;4.20;3.87;;;18.30;99.90;;;;;;5032777;28;20413;-69
2021/08/10 01:10:45;;;;;;;4.50;4.20;;;18.30;99.90;;;;;;5032934;28;20392;-69
2021/08/10 01:13:28;;;;;;;3.90;3.60;;;18.30;99.90;;;;;;5025570;28;20400;-69
2021/08/10 01:16:10;;;;;;;4.07;3.87;;;18.20;99.90;;;;;;5052353;28;20754;-69
2021/08/10 01:18:46;;;;;;;4.00;3.70;;;18.20;99.90;;;;;;5050534;28;20454;-68
2021/08/10 01:21:34;;;;;;;4.10;3.90;;;18.10;99.90;;;;;;5047850;28;20538;-69
2021/08/10 01:24:13;;;;;;;4.60;4.20;;;18.10;99.90;;;;;;5013016;28;20473;-68
2021/08/10 01:27:07;;;;;;;5.10;4.30;;;18.10;99.90;;;;;;5012863;28;20791;-68
2021/08/10 01:29:48;;;;;;;3.80;3.60;;;18.10;99.90;;;;;;5022892;28;20912;-68
2021/08/10 01:32:14;;;;;;;3.90;3.70;;;18.10;99.90;;;;;;5051689;28;20755;-69
2021/08/10 01:34:47;;;;;;;4.53;3.93;;;18.10;99.90;;;;;;5051992;28;20428;-70
2021/08/10 01:37:20;;;;;;;5.20;4.10;;;18.10;99.90;;;;;;5043456;28;20188;-69
2021/08/10 01:39:50;;;;;;;4.20;4.00;;;18.10;99.90;;;;;;5012407;28;20496;-69
2021/08/10 01:42:17;;;;;;;4.53;4.20;;;18.10;99.90;;;;;;5011672;28;20428;-69
2021/08/10 01:44:45;;;;;;;4.33;3.93;;;18.10;99.90;;;;;;5012354;28;20410;-68
2021/08/10 01:47:11;;;;;;;4.00;3.80;;;18.10;99.90;;;;;;5011917;28;20766;-74
2021/08/10 01:49:38;;;;;;;4.30;4.00;;;18.00;99.90;;;;;;5003568;28;20519;-68
2021/08/10 01:52:06;;;;;;;4.60;4.30;;;18.10;99.90;;;;;;5032404;28;20500;-68
2021/08/10 01:54:32;;;;;;;4.77;4.37;;;18.10;99.90;;;;;;5031237;28;20510;-68
2021/08/10 01:57:00;;;;;;;4.20;3.90;;;18.10;99.90;;;;;;5032182;28;20412;-68
2021/08/10 01:59:27;;;;;;;4.63;4.33;;;18.10;99.90;;;;;;5031093;28;20443;-69
2021/08/10 02:01:54;;;;;;;5.40;3.53;;;18.00;99.90;;;;;;5031757;28;20531;-69
2021/08/10 02:04:21;;;;;;;4.37;4.07;;;18.00;99.90;;;;;;5031319;28;20488;-68
2021/08/10 02:06:47;;;;;;;5.20;3.90;;;18.00;99.90;;;;;;5032077;28;20417;-69
2021/08/10 02:09:17;;;;;;;4.47;4.07;;;18.00;99.90;;;;;;5031347;28;20443;-69
2021/08/10 02:11:44;;;;;;;5.20;4.80;;;18.00;99.90;;;;;;5031842;28;20409;-69
2021/08/10 02:14:12;;;;;;;5.67;5.17;;;18.00;99.90;;;;;;5030992;28;20893;-74
2021/08/10 02:16:38;;;;;;;5.37;4.97;;;17.90;99.90;;;;;;5032043;28;20405;-69
2021/08/10 02:19:04;;;;;;;4.93;4.70;;;18.00;99.90;;;;;;5032003;28;20480;-69
2021/08/10 02:21:33;;;;;;;4.20;4.00;;;18.00;99.90;;;;;;5031082;28;20463;-69
2021/08/10 02:24:07;;;;;;;4.67;4.37;;;17.90;99.90;;;;;;5029257;28;20180;-68
2021/08/10 02:26:39;;;;;;;6.83;5.27;;;17.90;99.90;;;;;;5011552;28;20878;-69
2021/08/10 02:29:05;;;;;;;5.50;5.17;;;17.90;99.90;;;;;;4994819;28;20395;-68
2021/08/10 02:31:33;;;;;;;6.00;5.10;;;17.90;99.90;;;;;;5011273;28;20484;-68
2021/08/10 02:33:59;;;;;;;5.27;4.87;;;17.80;99.90;;;;;;5012131;28;20460;-69
2021/08/10 02:36:29;;;;;;;5.47;4.93;;;17.80;99.90;;;;;;5019119;28;20440;-68
2021/08/10 02:38:57;;;;;;;5.10;4.70;;;17.80;99.90;;;;;;5031866;28;20443;-69
2021/08/10 02:41:23;;;;;;;6.10;5.07;;;17.80;99.90;;;;;;5030925;28;20453;-68
2021/08/10 02:43:49;;;;;;;7.30;5.33;;;17.80;99.90;;;;;;5031770;28;20888;-68
2021/08/10 02:46:15;;;;;;;5.57;5.07;;;17.80;99.90;;;;;;5030748;28;20935;-69
2021/08/10 02:48:41;;;;;;;4.80;4.53;;;17.80;99.90;;;;;;5013810;28;20495;-68
2021/08/10 02:51:07;;;;;;;5.67;5.33;;;17.70;99.90;;;;;;5013323;28;20509;-69
2021/08/10 02:53:33;;;;;;;4.90;4.60;;;17.70;99.90;;;;;;5012157;28;20233;-68
2021/08/10 02:56:09;;;;;;;5.00;4.70;;;17.70;99.90;;;;;;4994491;28;20180;-68
2021/08/10 02:58:44;;;;;;;5.10;4.80;;;17.70;99.90;;;;;;5011438;28;20497;-69
2021/08/10 03:01:15;;;;;;;4.90;4.60;;;17.70;99.90;;;;;;5011946;28;20828;-68
2021/08/10 03:03:44;;;;;;;5.00;4.70;;;17.70;99.90;;;;;;4988743;28;20440;-69
2021/08/10 03:06:10;;;;;;;4.97;4.60;;;17.70;99.90;;;;;;5015373;28;20416;-70
2021/08/10 03:08:41;;;;;;;6.03;5.37;;;17.70;99.90;;;;;;4996903;28;20460;-69
2021/08/10 03:11:08;;;;;;;5.60;5.20;;;17.70;99.90;;;;;;5015344;28;20474;-69
2021/08/10 03:13:37;;;;;;;5.30;4.97;;;17.70;99.90;;;;;;5013296;28;20398;-69
2021/08/10 03:16:05;;;;;;;6.07;5.50;;;17.70;99.90;;;;;;5015175;28;20417;-69
2021/08/10 03:18:36;;;;;;;5.60;5.30;;;17.70;99.90;;;;;;5012864;28;20425;-69
2021/08/10 03:21:03;;;;;;;6.57;5.97;;;17.70;99.90;;;;;;5017025;28;21017;-69
2021/08/10 03:23:33;;;;;;;5.37;4.97;;;17.70;99.90;;;;;;5034045;28;20460;-69
2021/08/10 03:25:59;;;;;;;5.47;5.07;;;17.70;99.90;;;;;;5034498;28;20428;-69
2021/08/10 03:28:26;;;;;;;6.33;5.73;;;17.80;99.90;;;;;;5033950;28;20424;-69
2021/08/10 03:30:55;;;;;;;6.07;5.60;;;17.80;99.90;;;;;;5017104;28;20522;-69
2021/08/10 03:33:29;;;;;;;5.43;5.13;;;17.80;99.90;;;;;;5006620;28;20446;-69
2021/08/10 03:35:57;;;;;;;8.03;6.20;;;17.80;99.90;;;;;;5014553;28;20515;-69
2021/08/10 03:38:23;;;;;;;5.20;4.80;;;17.80;99.90;;;;;;5013983;28;20413;-69
2021/08/10 03:40:50;;;;;;;9.00;8.50;;;17.80;99.90;;;;;;5014331;28;20476;-69
2021/08/10 03:43:16;;;;;;;5.43;4.70;;;17.80;99.90;;;;;;4996821;28;20415;-75
2021/08/10 03:45:42;;;;;;;6.80;6.13;;;17.90;99.90;;;;;;4996804;28;20426;-69
2021/08/10 03:48:09;;;;;;;6.27;5.27;;;17.90;99.90;;;;;;5014872;28;20425;-69
2021/08/10 03:50:36;;;;;;;6.70;6.23;;;17.90;99.90;;;;;;5033380;28;21104;-70
2021/08/10 03:53:03;;;;;;;4.80;4.40;;;17.90;99.90;;;;;;5034080;28;20422;-69
2021/08/10 03:55:29;;;;;;;6.80;6.40;;;17.90;99.90;;;;;;5033213;28;20401;-69
2021/08/10 03:57:57;;;;;;;5.17;4.77;;;17.90;99.90;;;;;;5033942;28;20488;-69
2021/08/10 04:00:25;;;;;;;5.07;4.67;;;18.00;99.90;;;;;;5032801;28;20511;-69
2021/08/10 04:02:53;;;;;;;7.33;6.80;;;18.00;99.90;;;;;;5034122;28;20404;-69
2021/08/10 04:05:19;;;;;;;5.17;4.80;;;18.00;99.90;;;;;;5022166;28;20418;-75
2021/08/10 04:07:45;;;;;;;7.80;7.30;;;18.00;99.90;;;;;;5014471;28;20414;-69
2021/08/10 04:10:12;;;;;;;4.50;4.03;;;17.90;99.90;;;;;;5014142;28;20409;-69
2021/08/10 04:12:38;;;;;;;6.03;5.37;;;18.00;99.90;;;;;;4995627;28;20478;-69
2021/08/10 04:15:05;;;;;;;7.03;5.80;;;17.90;99.90;;;;;;4997259;28;20465;-69
2021/08/10 04:17:36;;;;;;;9.57;8.97;;;17.90;99.90;;;;;;5017256;28;20487;-69
2021/08/10 04:20:02;;;;;;;4.23;3.83;;;17.90;99.90;;;;;;4996403;28;20484;-69
2021/08/10 04:22:28;;;;;;;7.37;6.80;;;17.80;99.90;;;;;;4995763;28;20902;-69
2021/08/10 04:24:53;;;;;;;4.70;4.17;;;17.80;99.90;;;;;;5017516;28;20417;-69
2021/08/10 04:27:19;;;;;;;6.40;5.70;;;17.80;99.90;;;;;;5013040;28;20186;-75
2021/08/10 04:29:46;;;;;;;5.13;4.83;;;17.80;99.90;;;;;;5004127;28;20193;-69
2021/08/10 04:32:12;;;;;;;6.50;4.13;;;17.80;99.90;;;;;;5015863;28;20170;-69
2021/08/10 04:34:37;;;;;;;5.37;4.83;;;17.80;99.90;;;;;;5032514;28;21019;-69
2021/08/10 04:37:04;;;;;;;7.73;7.23;;;17.80;99.90;;;;;;5030059;28;20639;-69
2021/08/10 04:39:30;;;;;;;6.50;5.87;;;17.80;99.90;;;;;;5028665;28;20913;-69
2021/08/10 04:41:56;;;;;;;7.30;6.60;;;17.80;99.90;;;;;;5033038;28;20830;-69
2021/08/10 04:44:22;;;;;;;5.40;5.00;;;17.80;99.90;;;;;;5032291;28;20425;-70
2021/08/10 04:46:48;;;;;;;5.97;5.50;;;17.80;99.90;;;;;;5018620;28;20237;-69
2021/08/10 04:49:14;;;;;;;5.43;5.03;;;17.80;99.90;;;;;;5013482;28;20539;-69
2021/08/10 04:51:40;;;;;;;7.80;5.70;;;17.70;99.90;;;;;;5012677;28;20449;-69
2021/08/10 04:54:06;;;;;;;6.13;5.33;;;17.50;99.90;;;;;;5014424;28;20449;-70
2021/08/10 04:56:32;;;;;;;7.40;6.80;;;17.40;99.90;;;;;;5011885;28;20194;-69
2021/08/10 04:58:58;;;;;;;6.13;5.73;;;17.40;99.90;;;;;;5014096;28;20453;-69
2021/08/10 05:01:24;;;;;;;5.30;4.90;;;17.40;99.90;;;;;;5022264;28;20289;-72
2021/08/10 05:03:49;;;;;;;7.13;6.60;;;17.30;99.90;;;;;;5018983;28;20476;-72
2021/08/10 05:06:15;;;;;;;5.03;4.60;;;17.40;99.90;;;;;;5013007;28;20182;-70
2021/08/10 05:08:41;;;;;;;6.83;6.40;;;17.50;99.90;;;;;;5021021;28;20174;-69
2021/08/10 05:11:11;;;;;;;4.80;4.50;;;17.70;99.90;;;;;;5014451;28;20513;-69
2021/08/10 05:13:40;;;;;;;5.10;4.60;;;17.80;99.90;;;;;;5012315;28;20182;-69
2021/08/10 05:16:07;;;;;;;5.37;5.07;;;17.70;99.90;;;;;;5012986;28;20414;-71
2021/08/10 05:18:33;;;;;;;5.40;5.00;;;17.50;99.90;;;;;;5012098;28;20451;-69
2021/08/10 05:20:58;;;;;;;6.47;6.10;;;17.50;99.90;;;;;;5012644;28;20855;-68
2021/08/10 05:23:24;;;;;;;5.63;5.10;;;17.40;99.90;;;;;;5012759;28;20426;-68
2021/08/10 05:25:50;;;;;;;5.60;5.20;;;17.40;99.90;;;;;;5012344;28;20194;-68
2021/08/10 05:28:16;;;;;;;6.20;5.80;;;17.40;99.90;;;;;;5012704;28;20179;-68
2021/08/10 05:30:41;;;;;;;4.30;4.10;;;17.30;99.90;;;;;;5011958;28;20171;-68
2021/08/10 05:33:07;;;;;;;4.57;4.27;;;17.20;99.90;;;;;;5012815;28;20178;-68
2021/08/10 05:35:33;;;;;;;5.57;5.17;;;17.20;99.90;;;;;;5012510;28;20198;-68
2021/08/10 05:37:59;;;;;;;4.43;4.10;;;17.20;99.90;;;;;;5012523;28;20893;-68
2021/08/10 05:40:25;;;;;;;6.90;6.30;;;17.20;99.90;;;;;;4994309;28;20211;-69
2021/08/10 05:42:51;;;;;;;4.90;4.60;;;17.20;99.90;;;;;;5012502;28;20203;-69
2021/08/10 05:45:16;;;;;;;7.30;6.90;;;17.20;99.90;;;;;;5012340;28;20175;-69
2021/08/10 05:47:42;;;;;;;4.43;4.23;;;17.30;99.90;;;;;;5011826;28;20236;-70
2021/08/10 05:50:08;;;;;;;4.63;4.33;;;17.30;99.90;;;;;;5027356;28;20650;-69
2021/08/10 05:52:34;;;;;;;4.93;4.27;;;17.40;99.90;;;;;;5013550;28;20604;-70
2021/08/10 05:55:00;;;;;;;5.23;4.83;;;17.40;99.90;;;;;;4995060;28;20402;-70
2021/08/10 05:57:26;;;;;;;5.30;4.90;;;17.50;99.90;;;;;;4994032;28;20886;-66
2021/08/10 05:59:51;;;;;;;3.93;3.63;;;17.50;99.90;;;;;;5012106;28;20205;-65
2021/08/10 06:02:17;;;;;;;4.80;4.50;;;17.60;99.90;;;;;;5012411;28;20652;-65
2021/08/10 06:04:43;;;;;;;4.67;4.27;;;17.70;99.90;;;;;;4994136;28;20178;-66
2021/08/10 06:07:08;;;;;;;5.33;4.90;;;17.70;99.90;;;;;;5012308;28;20603;-66
2021/08/10 06:09:34;;;;;;;5.30;4.90;;;17.70;99.90;;;;;;5012920;28;20177;-65
2021/08/10 06:12:00;;;;;;;5.20;4.90;;;17.70;99.90;;;;;;5032082;28;20184;-65
2021/08/10 06:14:26;;;;;;;6.17;5.83;;;17.70;99.90;;;;;;5031023;28;20175;-69
2021/08/10 06:16:51;;;;;;;5.10;4.70;;;17.70;99.90;;;;;;5020225;28;20670;-65
2021/08/10 06:19:17;;;;;;;4.90;4.50;;;17.70;99.90;;;;;;5019351;28;20174;-67
2021/08/10 06:21:43;;;;;;;6.17;5.83;;;17.70;99.90;;;;;;5033100;28;20303;-68
2021/08/10 06:24:09;;;;;;;5.03;4.73;;;17.80;99.90;;;;;;5052225;28;20174;-68
2021/08/10 06:26:34;;;;;;;5.83;5.33;;;17.80;99.90;;;;;;5049414;28;20682;-68
2021/08/10 06:29:00;;;;;;;4.97;4.77;;;17.90;99.90;;;;;;5019147;28;21643;-68
2021/08/10 06:31:26;;;;;;;5.03;4.73;;;17.90;99.90;;;;;;5025509;28;20227;-77
2021/08/10 06:33:52;;;;;;;6.77;6.37;;;18.00;99.90;;;;;;5050667;28;20527;-68
2021/08/10 06:36:17;;;;;;;5.20;4.90;;;18.10;99.90;;;;;;5032365;28;20645;-68
2021/08/10 06:38:43;;;;;;;6.00;5.63;;;18.10;99.90;;;;;;5050410;28;20177;-70
2021/08/10 06:41:09;;;;;;;4.80;4.40;;;18.10;99.90;;;;;;5050585;28;20212;-68
2021/08/10 06:43:35;;;;;;;4.93;4.63;;;18.10;99.90;;;;;;5039672;28;20528;-65
2021/08/10 06:46:00;;;;;;;5.57;5.27;;;18.20;99.90;;;;;;5044212;28;20239;-65
2021/08/10 06:48:26;;;;;;;5.30;4.90;;;18.20;99.90;;;;;;5054194;28;20225;-67
2021/08/10 06:50:52;;;;;;;5.40;5.07;;;18.20;99.90;;;;;;5055333;28;20430;-65
2021/08/10 06:53:19;;;;;;;6.23;5.83;;;18.30;99.90;;;;;;5054912;28;20540;-65
2021/08/10 06:55:45;;;;;;;6.30;5.90;;;18.30;99.90;;;;;;5049497;28;20162;-65
2021/08/10 06:58:12;;;;;;;7.20;6.80;;;18.40;99.90;;;;;;5033674;28;20431;-65
2021/08/10 07:00:39;;;;;;;5.17;4.77;;;18.40;99.90;;;;;;5022999;28;20456;-67
2021/08/10 07:03:06;;;;;;;7.53;7.03;;;18.50;99.90;;;;;;5017325;28;20505;-66
2021/08/10 07:05:31;;;;;;;5.20;4.90;;;18.50;99.90;;;;;;5045149;28;20421;-66
2021/08/10 07:07:57;;;;;;;4.70;4.40;;;18.60;99.90;;;;;;4997817;28;20471;-65
2021/08/10 07:10:23;;;;;;;5.03;4.73;;;18.60;99.90;;;;;;5024716;28;20893;-65
2021/08/10 07:12:49;;;;;;;6.70;6.20;;;18.70;99.90;;;;;;5004775;28;20253;-66
2021/08/10 07:15:14;;;;;;;5.50;5.00;;;18.70;99.90;;;;;;5016069;28;20186;-65
2021/08/10 07:17:40;;;;;;;6.60;6.20;;;18.70;99.90;;;;;;5033058;28;20780;-65
2021/08/10 07:20:06;;;;;;;5.10;4.80;;;18.80;99.90;;;;;;5034741;28;20215;-65
2021/08/10 07:22:32;;;;;;;4.93;4.53;;;18.80;99.90;;;;;;5015694;28;20183;-65
2021/08/10 07:24:58;;;;;;;6.70;6.40;;;18.90;99.90;;;;;;5030221;28;20452;-64
2021/08/10 07:27:23;;;;;;;5.40;5.10;;;19.00;99.90;;;;;;5001276;28;20214;-64
2021/08/10 07:29:49;;;;;;;7.70;7.20;;;19.10;99.90;;;;;;5033159;28;20185;-67
2021/08/10 07:32:15;;;;;;;5.30;5.00;;;19.10;99.90;;;;;;5020298;28;20182;-67
2021/08/10 07:34:41;;;;;;;5.17;4.77;;;19.20;99.90;;;;;;5014210;28;20171;-65
2021/08/10 07:37:06;;;;;;;4.93;4.63;;;19.20;99.90;;;;;;4997257;28;20225;-65
2021/08/10 07:39:32;;;;;;;5.83;5.43;;;19.40;99.90;;;;;;5013881;28;20274;-66
2021/08/10 07:41:58;;;;;;;7.47;6.87;;;19.50;99.90;;;;;;5014920;28;20186;-65
2021/08/10 07:44:23;;;;;;;5.97;5.57;;;19.60;99.90;;;;;;5015055;28;20172;-65
2021/08/10 07:46:49;;;;;;;7.00;6.53;;;19.70;99.90;;;;;;5014427;28;20171;-65
2021/08/10 07:49:15;;;;;;;5.60;5.30;;;19.90;99.90;;;;;;5014521;28;20223;-65
2021/08/10 07:51:40;;;;;;;5.70;5.30;;;20.00;99.90;;;;;;4996925;28;20179;-65
2021/08/10 07:54:06;;;;;;;5.30;5.00;;;20.10;99.90;;;;;;5014875;28;20175;-65
2021/08/10 07:56:32;;;;;;;4.97;4.50;;;20.20;99.90;;;;;;5014249;28;20183;-65
2021/08/10 07:58:57;;;;;;;9.03;8.03;;;20.30;99.90;;;;;;5014814;28;20256;-65
2021/08/10 08:01:23;;;;;;;7.87;7.20;;;20.30;99.90;;;;;;5014339;28;20696;-64
2021/08/10 08:03:49;;;;;;;7.90;7.30;;;20.40;99.90;;;;;;5014168;28;20583;-65
2021/08/10 08:06:14;;;;;;;6.27;5.93;;;20.40;99.90;;;;;;5014671;28;20189;-65
2021/08/10 08:08:40;;;;;;;4.70;4.33;;;20.30;99.90;;;;;;5013777;28;20206;-65
2021/08/10 08:11:06;;;;;;;6.27;5.90;;;20.20;99.90;;;;;;5014848;28;20587;-65
2021/08/10 08:13:32;;;;;;;4.77;4.43;;;20.20;99.90;;;;;;5014020;28;20515;-65
2021/08/10 08:15:58;;;;;;;6.40;6.10;;;20.20;99.90;;;;;;5014162;28;20203;-65
2021/08/10 08:18:24;;;;;;;6.00;5.60;;;20.00;99.90;;;;;;4996897;28;20183;-65
2021/08/10 08:20:51;;;;;;;8.67;7.90;;;20.10;99.90;;;;;;5013691;28;20519;-65
2021/08/10 08:23:17;;;;;;;5.97;5.63;;;20.20;99.90;;;;;;5014043;28;20453;-65
2021/08/10 08:25:44;;;;;;;5.60;5.20;;;20.20;99.90;;;;;;5013442;28;20394;-64
2021/08/10 08:28:11;;;;;;;6.90;6.40;;;20.20;99.90;;;;;;5014244;28;20758;-65
2021/08/10 08:30:41;;;;;;;5.60;5.17;;;20.30;99.90;;;;;;5013685;28;20493;-65
2021/08/10 08:33:08;;;;;;;5.50;5.20;;;20.40;99.90;;;;;;5014105;28;20413;-65
2021/08/10 08:35:34;;;;;;;9.10;8.30;;;20.50;99.90;;;;;;5013430;28;20897;-65
2021/08/10 08:38:00;;;;;;;7.60;6.87;;;20.50;99.90;;;;;;5013825;28;20773;-65
2021/08/10 08:40:26;;;;;;;5.73;5.33;;;20.50;99.90;;;;;;5013985;28;20457;-65
2021/08/10 08:42:52;;;;;;;7.23;6.73;;;20.50;99.90;;;;;;5013391;28;20175;-65
2021/08/10 08:45:18;;;;;;;6.27;5.70;;;20.60;99.90;;;;;;5013695;28;20442;-65
2021/08/10 08:47:52;;;;;;;5.50;5.10;;;20.70;99.90;;;;;;5013308;28;20452;-65
2021/08/10 08:50:19;;;;;;;6.20;5.80;;;20.80;99.90;;;;;;5013459;28;20497;-65
2021/08/10 08:52:52;;;;;;;8.03;7.33;;;20.90;99.90;;;;;;5013529;28;20806;-65
2021/08/10 08:55:21;;;;;;;8.40;7.80;;;21.00;99.90;;;;;;5013762;28;20890;-65
2021/08/10 08:57:48;;;;;;;5.53;5.13;;;21.10;99.90;;;;;;5012804;28;20406;-65
2021/08/10 09:00:15;;;;;;;5.87;5.30;;;21.10;99.90;;;;;;5012759;28;20474;-65
2021/08/10 09:02:41;;;;;;;5.60;5.30;;;21.10;99.90;;;;;;5013081;28;20426;-65
2021/08/10 09:05:08;;;;;;;5.30;4.90;;;21.10;99.90;;;;;;5013640;28;20503;-65
2021/08/10 09:07:34;;;;;;;12.00;10.87;;;21.10;99.90;;;;;;4995434;28;20881;-65
2021/08/10 09:10:10;;;;;;;10.40;9.50;;;21.20;99.90;;;;;;4995816;28;20496;-65
2021/08/10 09:12:47;;;;;;;6.60;6.10;;;21.30;99.90;;;;;;5013207;28;20413;-65
2021/08/10 09:15:32;;;;;;;5.60;5.20;;;21.30;99.90;;;;;;5013176;28;20885;-65
2021/08/10 09:18:12;;;;;;;5.90;5.50;;;21.40;99.90;;;;;;5013382;28;20394;-65
2021/08/10 09:20:39;;;;;;;6.17;5.73;;;21.50;99.90;;;;;;5012777;28;20484;-65
2021/08/10 09:23:05;;;;;;;6.00;5.60;;;21.50;99.90;;;;;;5013190;28;20414;-65
2021/08/10 09:25:33;;;;;;;5.87;5.50;;;21.50;99.90;;;;;;5013268;28;20444;-65
2021/08/10 09:28:09;;;;;;;5.70;5.40;;;21.60;99.90;;;;;;5013019;28;20402;-65
2021/08/10 09:30:35;;;;;;;5.53;5.13;;;21.60;99.90;;;;;;5012572;28;20472;-65
2021/08/10 09:33:04;;;;;;;5.07;4.77;;;21.70;99.90;;;;;;5013073;28;20402;-65
2021/08/10 09:35:35;;;;;;;5.77;5.47;;;21.80;99.90;;;;;;5013018;28;20229;-65
2021/08/10 09:38:04;;;;;;;5.70;5.40;;;21.90;99.80;;;;;;5013120;28;20402;-65
2021/08/10 09:40:32;;;;;;;10.97;10.17;;;21.90;98.40;;;;;;5012948;28;20449;-65
2021/08/10 09:43:17;;;;;;;5.80;5.40;;;21.90;98.40;;;;;;5012662;28;20768;-65
2021/08/10 09:45:42;;;;;;;5.87;5.40;;;22.00;98.90;;;;;;5012331;28;20894;-65
2021/08/10 09:48:15;;;;;;;5.60;5.20;;;22.10;98.50;;;;;;4995366;28;20463;-65
2021/08/10 09:50:41;;;;;;;7.73;7.20;;;22.20;97.90;;;;;;5012591;28;20359;-65
2021/08/10 09:53:18;;;;;;;6.73;6.33;;;22.30;98.30;;;;;;5012902;28;20510;-65
2021/08/10 09:55:55;;;;;;;6.40;5.90;;;22.30;98.10;;;;;;5012169;28;20538;-65
2021/08/10 09:58:21;;;;;;;5.70;5.40;;;22.30;97.80;;;;;;5012741;28;20406;-65
2021/08/10 10:00:47;;;;;;;7.13;6.70;;;22.30;97.50;;;;;;5012210;28;20472;-65
2021/08/10 10:03:19;;;;;;;6.47;6.00;;;22.30;97.80;;;;;;5012767;28;20390;-65
2021/08/10 10:05:46;;;;;;;7.70;7.20;;;22.20;98.60;;;;;;5011984;28;20174;-65
2021/08/10 10:08:18;;;;;;;7.70;7.20;;;22.20;98.90;;;;;;5012624;28;20745;-65
2021/08/10 10:10:45;;;;;;;6.77;6.37;;;22.20;98.70;;;;;;5012785;28;20430;-66
2021/08/10 10:13:14;;;;;;;6.10;5.60;;;22.10;98.30;;;;;;5016795;28;20406;-66
2021/08/10 10:15:40;;;;;;;8.17;7.77;;;22.10;97.80;;;;;;5016165;28;20405;-66
2021/08/10 10:18:07;;;;;;;6.17;5.77;;;22.20;97.40;;;;;;5016609;28;20406;-66
2021/08/10 10:20:36;;;;;;;9.00;8.50;;;22.20;97.80;;;;;;5016636;28;20461;-65
2021/08/10 10:23:03;;;;;;;9.77;9.10;;;22.20;98.50;;;;;;5016369;28;20422;-65
2021/08/10 10:25:31;;;;;;;7.30;6.90;;;22.20;97.70;;;;;;5016325;28;20406;-65
2021/08/10 10:27:59;;;;;;;8.20;7.70;;;22.10;97.20;;;;;;5015669;28;20452;-65
2021/08/10 10:30:26;;;;;;;5.47;5.17;;;22.10;97.70;;;;;;5016504;28;20905;-66
2021/08/10 10:32:52;;;;;;;6.03;5.50;;;22.10;97.70;;;;;;5015863;28;20916;-66
2021/08/10 10:35:18;;;;;;;5.47;5.17;;;22.10;97.90;;;;;;5016394;28;20416;-65
2021/08/10 10:37:49;;;;;;;7.87;7.17;;;22.00;97.90;;;;;;5015699;28;20409;-66
2021/08/10 10:40:18;;;;;;;5.93;5.43;;;22.00;98.00;;;;;;5016299;28;20460;-65
2021/08/10 10:42:55;;;;;;;8.57;7.77;;;21.90;98.00;;;;;;5015651;28;20796;-65
2021/08/10 10:45:34;;;;;;;7.67;7.07;;;21.90;97.40;;;;;;5016233;28;20394;-65
2021/08/10 10:48:00;;;;;;;7.00;6.50;;;22.00;98.20;;;;;;5015110;28;20909;-66
2021/08/10 10:50:26;;;;;;;6.40;6.00;;;22.10;97.90;;;;;;5015755;28;20456;-65
2021/08/10 10:53:06;;;;;;;8.40;7.63;;;22.20;98.50;;;;;;5015470;28;20938;-66
2021/08/10 10:55:41;;;;;;;7.30;6.70;;;22.50;98.40;;;;;;5016072;28;20514;-65
2021/08/10 10:58:30;;;;;;;4.90;4.60;;;22.80;98.20;;;;;;5015970;28;20479;-66
2021/08/10 11:01:29;;;;;;;5.77;5.33;;;23.00;97.10;;;;;;5015028;28;20456;-66
2021/08/10 11:04:05;;;;;;;5.57;5.20;;;23.10;95.70;;;;;;5004006;28;20414;-65
2021/08/10 11:06:49;;;;;;;7.53;7.03;;;23.10;95.60;;;;;;5015742;28;20405;-66
2021/08/10 11:09:36;;;;;;;8.40;7.70;;;23.10;95.60;;;;;;5015800;28;20537;-65
2021/08/10 11:12:44;;;;;;;10.00;9.20;;;23.10;95.30;;;;;;5015165;28;20410;-66
2021/08/10 11:15:19;;;;;;;7.57;7.03;;;23.10;95.40;;;;;;5015687;28;20402;-65
2021/08/10 11:18:10;;;;;;;7.60;7.00;;;22.90;94.10;;;;;;5015049;28;20873;-65
2021/08/10 11:20:43;;;;;;;7.67;7.07;;;22.90;94.10;;;;;;5015134;28;20468;-65
2021/08/10 11:23:24;;;;;;;7.40;6.90;;;22.80;94.70;;;;;;5014153;28;20521;-65
2021/08/10 11:25:59;;;;;;;7.10;6.70;;;22.80;95.20;;;;;;5014494;28;20456;-66
2021/08/10 11:28:31;;;;;;;8.00;7.30;;;22.60;94.60;;;;;;5015368;28;20420;-65
2021/08/10 11:31:11;;;;;;;8.93;8.23;;;22.50;94.60;;;;;;5014723;28;20464;-65
2021/08/10 11:33:41;;;;;;;9.83;8.93;;;22.40;95.50;;;;;;5015282;28;20394;-66
2021/08/10 11:36:29;;;;;;;9.90;9.20;;;22.40;95.40;;;;;;5015356;28;20414;-65
2021/08/10 11:38:55;;;;;;;8.87;8.30;;;22.70;97.10;;;;;;5014533;28;20421;-66
2021/08/10 11:41:26;;;;;;;8.67;7.97;;;22.90;96.50;;;;;;5015082;28;20493;-66
2021/08/10 11:43:58;;;;;;;7.60;7.10;;;23.10;96.50;;;;;;5014379;28;20481;-66
2021/08/10 11:46:36;;;;;;;8.17;7.57;;;23.40;96.30;;;;;;4997567;28;20400;-66
2021/08/10 11:49:04;;;;;;;10.93;10.23;;;23.60;94.10;;;;;;5014252;28;20549;-68
2021/08/10 11:51:35;;;;;;;8.60;7.90;;;23.70;94.60;;;;;;5014924;28;20452;-66
2021/08/10 11:54:08;;;;;;;8.10;7.50;;;23.80;94.80;;;;;;5014113;28;20808;-66
2021/08/10 11:56:39;;;;;;;15.37;14.00;;;24.10;93.80;;;;;;5014878;28;20438;-66
2021/08/10 11:59:13;;;;;;;10.10;9.40;;;24.10;94.80;;;;;;5014246;28;20422;-66
2021/08/10 12:01:39;;;;;;;10.50;9.80;;;24.30;93.40;;;;;;5014775;28;20457;-65
2021/08/10 12:04:21;;;;;;;9.77;9.10;;;24.30;93.40;;;;;;5013922;28;20446;-65
2021/08/10 12:06:50;;;;;;;9.70;9.00;;;24.30;93.10;;;;;;5014071;28;20424;-66
2021/08/10 12:09:17;;;;;;;8.90;8.10;;;24.20;92.20;;;;;;5014782;28;20446;-65
2021/08/10 12:11:47;;;;;;;9.57;8.80;;;24.00;92.30;;;;;;5013915;28;20505;-66
2021/08/10 12:14:17;;;;;;;9.97;9.37;;;23.90;93.00;;;;;;5014534;28;20402;-65
2021/08/10 12:16:59;;;;;;;8.57;7.80;;;23.90;93.20;;;;;;5013808;28;20442;-66
2021/08/10 12:19:45;;;;;;;9.47;8.77;;;23.90;93.20;;;;;;5014449;28;20936;-65
2021/08/10 12:22:26;;;;;;;7.83;7.20;;;23.80;93.60;;;;;;5014447;28;20489;-65
2021/08/10 12:24:54;;;;;;;7.50;6.90;;;23.80;94.30;;;;;;5013683;28;20746;-65
2021/08/10 12:27:27;;;;;;;9.60;9.00;;;23.80;94.40;;;;;;5013865;28;20406;-65
2021/08/10 12:29:53;;;;;;;7.97;7.37;;;23.90;94.10;;;;;;5013107;28;20461;-65
2021/08/10 12:32:29;;;;;;;8.53;7.90;;;24.00;92.90;;;;;;5013795;28;20502;-66
2021/08/10 12:34:56;;;;;;;8.63;7.93;;;24.10;92.90;;;;;;5013476;28;20171;-66
2021/08/10 12:37:31;;;;;;;10.43;9.67;;;24.00;93.60;;;;;;5014203;28;20402;-66
2021/08/10 12:39:58;;;;;;;7.40;6.83;;;24.00;92.40;;;;;;5013355;28;20405;-66
2021/08/10 12:42:24;;;;;;;6.30;5.90;;;23.90;91.90;;;;;;5014041;28;20421;-66
2021/08/10 12:44:51;;;;;;;7.47;6.90;;;23.90;93.20;;;;;;5013361;28;20441;-66
2021/08/10 12:47:29;;;;;;;6.77;6.27;;;23.90;92.30;;;;;;5013879;28;20402;-66
2021/08/10 12:49:56;;;;;;;9.63;8.93;;;23.90;93.40;;;;;;5013447;28;20465;-66
2021/08/10 12:52:43;;;;;;;8.70;8.10;;;23.80;93.10;;;;;;5013781;28;20764;-66
2021/08/10 12:55:09;;;;;;;9.00;8.40;;;23.80;93.40;;;;;;5013688;28;20750;-66